Spicewood's Hourly Summary for Saturday, July 7, 2018
Hour Temp
(f)
RH
(%)
Solar Rad.
(MJ/m2)
Rainfall
(in)
Wind
(mph)
7/7/2018 12:00 AM 80 71 0 0 2.03
7/7/2018 1:00 AM 79 75 0 0 1.24
7/7/2018 2:00 AM 78 79 0 0 1.43
7/7/2018 3:00 AM 76 83 0 0 0.91
7/7/2018 4:00 AM 75 85 0 0 0.68
7/7/2018 5:00 AM 74 90 0 0 1.37
7/7/2018 6:00 AM 73 91 0 0 0.43
7/7/2018 7:00 AM 73 91 0.01 0 1.39
7/7/2018 8:00 AM 76 91 0.18 0 1.08
7/7/2018 9:00 AM 80 79 0.68 0 1.93
7/7/2018 10:00 AM 80 70 1.51 0.05 2.59
7/7/2018 11:00 AM 80 95 0.31 0 3.17
7/7/2018 12:00 PM 78 95 1.18 0 2.9
7/7/2018 1:00 PM 83 79 1.42 0 2.66
7/7/2018 2:00 PM 83 64 2.87 0.46 3.11
7/7/2018 3:00 PM 80 98 1.33 0.06 6.9
7/7/2018 4:00 PM 72 98 0.22 0 2.04
7/7/2018 5:00 PM 74 98 0.54 0 2.74
7/7/2018 6:00 PM 74 97 0.5 0 2.54
7/7/2018 7:00 PM 75 97 0.3 0 1.05
7/7/2018 8:00 PM 75 96 0.16 0 0.57
7/7/2018 9:00 PM 75 96 0.05 0 0.51
7/7/2018 10:00 PM 74 99 0 0 0.93
7/7/2018 11:00 PM 73 99 0 0 0.68
Data Summary 76 88 11.26 0.57 1.87